createdAt,value
2023-07-17T00:00:07.476Z,17.30
2023-07-17T00:02:36.478Z,17.20
2023-07-17T00:05:05.492Z,17.20
2023-07-17T00:07:35.122Z,17.20
2023-07-17T00:10:05.321Z,17.20
2023-07-17T00:12:33.802Z,17.20
2023-07-17T00:15:05.974Z,17.30
2023-07-17T00:17:34.805Z,17.30
2023-07-17T00:20:07.099Z,17.20
2023-07-17T00:22:36.994Z,17.20
2023-07-17T00:25:06.430Z,17.20
2023-07-17T00:27:36.476Z,17.10
2023-07-17T00:30:06.296Z,17.10
2023-07-17T00:32:34.667Z,17.20
2023-07-17T00:35:02.994Z,17.10
2023-07-17T00:37:32.210Z,17.10
2023-07-17T00:40:01.888Z,17.10
2023-07-17T00:42:30.156Z,17.10
2023-07-17T00:44:58.388Z,17.10
2023-07-17T00:47:27.029Z,17.10
2023-07-17T00:49:55.821Z,17.10
2023-07-17T00:52:24.330Z,17.10
2023-07-17T00:54:53.444Z,17.00
2023-07-17T00:57:26.453Z,17.10
2023-07-17T00:59:55.201Z,17.00
2023-07-17T01:02:25.396Z,17.00
2023-07-17T01:04:54.179Z,16.90
2023-07-17T01:07:22.477Z,16.90
2023-07-17T01:09:50.968Z,16.90
2023-07-17T01:12:19.267Z,16.90
2023-07-17T01:14:49.311Z,16.70
2023-07-17T01:17:17.635Z,16.50
2023-07-17T01:19:46.394Z,16.30
2023-07-17T01:22:22.871Z,16.20
2023-07-17T01:24:53.993Z,16.00
2023-07-17T01:27:22.275Z,16.00
2023-07-17T01:29:50.554Z,15.90
2023-07-17T01:32:21.277Z,15.90
2023-07-17T01:34:49.713Z,15.90
2023-07-17T01:37:19.509Z,15.80
2023-07-17T01:39:48.908Z,15.80
2023-07-17T01:42:18.515Z,15.80
2023-07-17T01:44:46.726Z,15.80
2023-07-17T01:47:15.121Z,15.70
2023-07-17T01:49:43.471Z,15.70
2023-07-17T01:52:11.776Z,15.70
2023-07-17T01:54:40.111Z,15.70
2023-07-17T01:57:10.353Z,15.70
2023-07-17T01:59:40.003Z,15.70
2023-07-17T02:02:09.345Z,15.80
2023-07-17T02:04:37.946Z,15.80
2023-07-17T02:07:06.359Z,15.80
2023-07-17T02:09:34.694Z,15.80
2023-07-17T02:12:03.189Z,15.70
2023-07-17T02:14:33.988Z,15.70
2023-07-17T02:17:04.365Z,15.70
2023-07-17T02:19:32.632Z,15.70
2023-07-17T02:22:00.815Z,15.60
2023-07-17T02:24:29.193Z,15.60
2023-07-17T02:27:00.219Z,15.60
2023-07-17T02:29:28.516Z,15.70
2023-07-17T02:31:56.898Z,15.70
2023-07-17T02:34:28.496Z,15.70
2023-07-17T02:36:58.714Z,15.70
2023-07-17T02:39:26.952Z,15.70
2023-07-17T02:41:55.176Z,15.70
2023-07-17T02:44:23.625Z,15.60
2023-07-17T02:46:52.516Z,15.50
2023-07-17T02:49:21.308Z,15.50
2023-07-17T02:51:50.868Z,15.50
2023-07-17T02:54:19.225Z,15.50
2023-07-17T02:56:47.621Z,15.50
2023-07-17T02:59:15.901Z,15.50
2023-07-17T03:01:44.723Z,15.50
2023-07-17T03:04:12.986Z,15.50
2023-07-17T03:06:41.257Z,15.50
2023-07-17T03:09:10.884Z,15.40
2023-07-17T03:11:39.159Z,15.40
2023-07-17T03:14:07.448Z,15.40
2023-07-17T03:16:35.848Z,15.40
2023-07-17T03:19:04.312Z,15.40
2023-07-17T03:21:33.547Z,15.30
2023-07-17T03:24:03.832Z,15.30
2023-07-17T03:26:33.601Z,15.30
2023-07-17T03:29:01.920Z,15.20
2023-07-17T03:31:30.110Z,15.20
2023-07-17T03:33:59.718Z,15.20
2023-07-17T03:36:28.070Z,15.20
2023-07-17T03:38:56.324Z,15.10
2023-07-17T03:41:24.807Z,15.10
2023-07-17T03:43:58.157Z,15.10
2023-07-17T03:46:26.644Z,15.10
2023-07-17T03:48:54.874Z,15.10
2023-07-17T03:51:24.460Z,15.10
2023-07-17T03:53:53.778Z,15.10
2023-07-17T03:56:22.927Z,15.10
2023-07-17T03:58:52.003Z,15.10
2023-07-17T04:01:22.048Z,15.10
2023-07-17T04:03:52.901Z,15.10
2023-07-17T04:06:22.790Z,15.00
2023-07-17T04:08:51.078Z,15.10
2023-07-17T04:11:19.702Z,15.10
2023-07-17T04:13:52.037Z,15.10
2023-07-17T04:16:22.493Z,15.10
2023-07-17T04:18:50.840Z,15.10
2023-07-17T04:21:19.658Z,15.10
2023-07-17T04:23:52.369Z,15.20
2023-07-17T04:26:26.085Z,15.10
2023-07-17T04:28:54.450Z,15.10
2023-07-17T04:31:24.816Z,15.10
2023-07-17T04:33:53.708Z,15.10
2023-07-17T04:36:22.463Z,15.10
2023-07-17T04:38:50.817Z,15.20
2023-07-17T04:41:19.480Z,15.30
2023-07-17T04:43:47.836Z,15.30
2023-07-17T04:46:16.373Z,15.40
2023-07-17T04:48:46.008Z,15.50
2023-07-17T04:51:14.457Z,15.60
2023-07-17T04:53:42.937Z,15.60
2023-07-17T04:56:11.289Z,15.60
2023-07-17T04:58:39.997Z,15.70
2023-07-17T05:01:08.365Z,15.70
2023-07-17T05:03:37.982Z,15.70
2023-07-17T05:06:08.052Z,15.70
2023-07-17T05:08:36.385Z,15.80
2023-07-17T05:11:06.059Z,15.90
2023-07-17T05:13:39.424Z,16.10
2023-07-17T05:16:08.775Z,16.30
2023-07-17T05:18:36.989Z,16.50
2023-07-17T05:21:05.246Z,16.70
2023-07-17T05:23:35.463Z,16.70
2023-07-17T05:26:05.703Z,16.80
2023-07-17T05:28:35.522Z,16.90
2023-07-17T05:31:04.058Z,16.80
2023-07-17T05:33:32.569Z,16.80
2023-07-17T05:36:01.408Z,16.70
2023-07-17T05:38:30.539Z,16.50
2023-07-17T05:41:02.141Z,16.50
2023-07-17T05:43:32.515Z,16.50
2023-07-17T05:46:07.147Z,16.50
2023-07-17T05:48:35.445Z,16.60
2023-07-17T05:51:03.742Z,16.60
2023-07-17T05:53:31.923Z,16.60
2023-07-17T05:56:01.503Z,16.60
2023-07-17T05:58:30.763Z,16.60
2023-07-17T06:00:59.117Z,16.60
2023-07-17T06:03:27.541Z,16.70
2023-07-17T06:05:55.762Z,16.70
2023-07-17T06:08:23.876Z,16.70
2023-07-17T06:10:52.272Z,16.70
2023-07-17T06:13:22.073Z,16.70
2023-07-17T06:15:50.302Z,16.90
2023-07-17T06:18:18.545Z,16.90
2023-07-17T06:20:47.335Z,17.10
2023-07-17T06:23:15.546Z,17.20
2023-07-17T06:25:44.011Z,17.30
2023-07-17T06:28:12.264Z,17.30
2023-07-17T06:30:41.944Z,17.40
2023-07-17T06:33:10.408Z,17.40
2023-07-17T06:35:38.712Z,17.50
2023-07-17T06:38:06.953Z,17.60
2023-07-17T06:40:36.193Z,17.70
2023-07-17T06:43:04.660Z,17.70
2023-07-17T06:45:32.979Z,17.70
2023-07-17T06:48:02.554Z,17.80
2023-07-17T06:50:31.779Z,17.80
2023-07-17T06:53:00.049Z,17.80
2023-07-17T06:55:28.916Z,17.70
2023-07-17T06:57:57.104Z,17.70
2023-07-17T07:00:25.467Z,17.80
2023-07-17T07:02:55.236Z,17.90
2023-07-17T07:05:25.105Z,17.90
2023-07-17T07:07:53.567Z,17.90
2023-07-17T07:10:21.707Z,18.10
2023-07-17T07:12:49.858Z,18.30
2023-07-17T07:15:18.026Z,18.30
2023-07-17T07:17:46.513Z,18.20
2023-07-17T07:20:15.066Z,17.90
2023-07-17T07:22:44.668Z,17.70
2023-07-17T07:25:12.829Z,17.80
2023-07-17T07:27:42.035Z,18.00
2023-07-17T07:30:10.848Z,18.10
2023-07-17T07:32:40.638Z,18.10
2023-07-17T07:35:09.451Z,18.30
2023-07-17T07:37:38.786Z,18.30
2023-07-17T07:40:12.589Z,18.50
2023-07-17T07:42:41.516Z,18.60
2023-07-17T07:45:11.168Z,18.50
2023-07-17T07:47:39.558Z,18.50
2023-07-17T07:51:05.102Z,18.60
2023-07-17T07:53:42.517Z,18.50
2023-07-17T07:56:12.900Z,18.60
2023-07-17T07:58:40.956Z,18.90
2023-07-17T08:01:09.124Z,19.10
2023-07-17T08:03:37.374Z,18.90
2023-07-17T08:06:05.572Z,19.00
2023-07-17T08:08:34.023Z,19.00
2023-07-17T08:11:02.892Z,19.20
2023-07-17T08:13:32.488Z,19.10
2023-07-17T08:16:00.534Z,19.00
2023-07-17T08:18:28.904Z,18.90
2023-07-17T08:20:57.380Z,19.10
2023-07-17T08:23:29.213Z,19.20
2023-07-17T08:25:57.352Z,19.10
2023-07-17T08:28:25.436Z,19.10
2023-07-17T08:30:55.112Z,19.10
2023-07-17T08:33:23.467Z,19.00
2023-07-17T08:35:52.694Z,19.10
2023-07-17T08:38:20.830Z,19.40
2023-07-17T08:40:54.316Z,19.80
2023-07-17T08:43:23.377Z,19.80
2023-07-17T08:45:54.619Z,19.80
2023-07-17T08:48:22.847Z,19.60
2023-07-17T08:50:53.354Z,19.80
2023-07-17T08:53:23.987Z,19.90
2023-07-17T08:55:55.073Z,20.00
2023-07-17T08:58:25.014Z,20.00
2023-07-17T09:00:54.684Z,20.30
2023-07-17T09:03:22.906Z,20.00
2023-07-17T09:05:51.012Z,19.90
2023-07-17T09:08:19.065Z,20.20
2023-07-17T09:10:47.074Z,20.20
2023-07-17T09:13:15.419Z,20.60
2023-07-17T09:15:43.567Z,20.60
2023-07-17T09:18:12.951Z,20.50
2023-07-17T09:20:41.227Z,20.30
2023-07-17T09:23:09.297Z,20.30
2023-07-17T09:25:37.305Z,20.70
2023-07-17T09:28:05.567Z,20.60
2023-07-17T09:30:33.553Z,20.60
2023-07-17T09:33:07.663Z,20.90
2023-07-17T09:35:37.740Z,21.20
2023-07-17T09:38:10.860Z,21.50
2023-07-17T09:40:39.003Z,21.70
2023-07-17T09:43:07.994Z,21.60
2023-07-17T09:45:36.852Z,21.50
2023-07-17T09:48:07.006Z,21.00
2023-07-17T09:50:38.119Z,20.80
2023-07-17T09:53:08.725Z,20.70
2023-07-17T09:55:38.445Z,21.00
2023-07-17T09:58:07.839Z,21.30
2023-07-17T10:00:38.513Z,21.50
2023-07-17T10:03:09.973Z,21.80
2023-07-17T10:05:40.166Z,21.90
2023-07-17T10:08:11.368Z,21.90
2023-07-17T10:10:41.710Z,21.90
2023-07-17T10:13:10.740Z,21.70
2023-07-17T10:15:39.318Z,21.90
2023-07-17T10:18:10.573Z,22.20
2023-07-17T10:20:40.529Z,22.00
2023-07-17T10:23:23.759Z,21.70
2023-07-17T10:25:52.048Z,21.60
2023-07-17T10:28:32.417Z,22.00
2023-07-17T10:31:09.723Z,22.20
2023-07-17T10:33:39.041Z,21.90
2023-07-17T10:36:14.432Z,21.60
2023-07-17T10:38:43.429Z,21.20
2023-07-17T10:41:27.299Z,20.80
2023-07-17T10:44:10.702Z,20.80
2023-07-17T10:46:45.271Z,21.00
2023-07-17T10:49:14.695Z,21.80
2023-07-17T10:51:46.202Z,21.80
2023-07-17T10:54:14.669Z,22.00
2023-07-17T10:56:44.025Z,22.00
2023-07-17T10:59:12.153Z,22.30
2023-07-17T11:01:40.178Z,22.40
2023-07-17T11:04:09.995Z,22.40
2023-07-17T11:06:38.290Z,22.30
2023-07-17T11:09:08.392Z,21.80
2023-07-17T11:11:36.606Z,21.90
2023-07-17T11:14:05.961Z,22.80
2023-07-17T11:16:35.140Z,22.50
2023-07-17T11:19:05.371Z,22.60
2023-07-17T11:21:34.587Z,22.90
2023-07-17T11:24:03.756Z,22.30
2023-07-17T11:26:34.779Z,22.20
2023-07-17T11:29:04.666Z,22.20
2023-07-17T11:31:35.566Z,21.60
2023-07-17T11:34:08.097Z,21.50
2023-07-17T11:36:42.319Z,21.50
2023-07-17T11:39:11.621Z,21.20
2023-07-17T11:41:51.392Z,21.10
2023-07-17T11:44:24.409Z,21.00
2023-07-17T11:46:54.244Z,20.90
2023-07-17T11:49:22.279Z,21.00
2023-07-17T11:51:50.291Z,20.90
2023-07-17T11:54:18.371Z,20.90
2023-07-17T11:56:47.970Z,21.10
2023-07-17T11:59:21.519Z,21.90
2023-07-17T12:01:50.606Z,22.80
2023-07-17T12:04:21.691Z,23.20
2023-07-17T12:06:50.447Z,23.00
2023-07-17T12:09:19.186Z,23.10
2023-07-17T12:11:48.436Z,22.70
2023-07-17T12:14:18.255Z,22.40
2023-07-17T12:16:48.603Z,22.20
2023-07-17T12:19:17.165Z,22.60
2023-07-17T12:21:45.419Z,22.80
2023-07-17T12:24:17.158Z,23.10
2023-07-17T12:26:45.159Z,23.30
2023-07-17T12:29:13.205Z,22.80
2023-07-17T12:31:41.273Z,23.00
2023-07-17T12:34:11.448Z,23.00
2023-07-17T12:36:39.447Z,23.20
2023-07-17T12:39:14.259Z,23.30
2023-07-17T12:41:42.575Z,24.20
2023-07-17T12:44:12.161Z,24.20
2023-07-17T12:46:40.177Z,23.60
2023-07-17T12:49:08.970Z,23.30
2023-07-17T12:51:38.347Z,23.30
2023-07-17T12:54:06.878Z,23.30
2023-07-17T12:56:35.014Z,23.80
2023-07-17T12:59:03.103Z,23.30
2023-07-17T13:01:31.437Z,23.20
2023-07-17T13:03:59.735Z,23.10
2023-07-17T13:06:27.985Z,23.20
2023-07-17T13:08:57.479Z,23.10
2023-07-17T13:11:25.560Z,23.70
2023-07-17T13:13:53.531Z,24.20
2023-07-17T13:16:21.538Z,24.40
2023-07-17T13:18:49.604Z,24.60
2023-07-17T13:21:17.918Z,24.50
2023-07-17T13:23:46.117Z,23.90
2023-07-17T13:26:16.214Z,23.60
2023-07-17T13:28:44.259Z,23.60
2023-07-17T13:31:12.325Z,23.70
2023-07-17T13:33:40.508Z,23.70
2023-07-17T13:36:08.960Z,23.20
2023-07-17T13:38:36.994Z,23.40
2023-07-17T13:41:20.233Z,23.20
2023-07-17T13:43:48.452Z,23.00
2023-07-17T13:46:16.487Z,23.30
2023-07-17T13:48:44.518Z,23.60
2023-07-17T13:51:12.540Z,23.10
2023-07-17T13:53:40.553Z,23.10
2023-07-17T13:56:08.728Z,23.10
2023-07-17T13:58:43.819Z,23.40
2023-07-17T14:01:12.335Z,23.50
2023-07-17T14:03:40.511Z,23.40
2023-07-17T14:06:08.512Z,23.40
2023-07-17T14:08:36.497Z,23.50
2023-07-17T14:11:04.596Z,23.80
2023-07-17T14:13:32.611Z,24.20
2023-07-17T14:16:01.997Z,24.10
2023-07-17T14:18:30.057Z,23.70
2023-07-17T14:20:59.170Z,23.20
2023-07-17T14:23:27.153Z,22.90
2023-07-17T14:25:55.114Z,22.90
2023-07-17T14:28:23.112Z,22.80
2023-07-17T14:30:51.089Z,22.50
2023-07-17T14:33:20.468Z,22.00
2023-07-17T14:35:48.471Z,21.60
2023-07-17T14:38:16.671Z,21.30
2023-07-17T14:40:44.763Z,20.80
2023-07-17T14:43:12.768Z,20.80
2023-07-17T14:45:41.068Z,20.60
2023-07-17T14:48:09.425Z,20.30
2023-07-17T14:50:39.083Z,20.30
2023-07-17T14:53:07.052Z,20.10
2023-07-17T14:55:37.142Z,20.00
2023-07-17T14:58:05.375Z,20.10
2023-07-17T15:00:33.429Z,20.10
2023-07-17T15:03:01.553Z,20.00
2023-07-17T15:05:29.670Z,20.10
2023-07-17T15:07:59.054Z,20.20
2023-07-17T15:10:27.572Z,20.30
2023-07-17T15:12:55.557Z,20.50
2023-07-17T15:15:23.766Z,20.50
2023-07-17T15:17:52.645Z,20.50
2023-07-17T15:20:20.979Z,20.30
2023-07-17T15:22:49.236Z,20.60
2023-07-17T15:25:18.729Z,20.60
2023-07-17T15:27:46.790Z,20.80
2023-07-17T15:30:15.456Z,20.90
2023-07-17T15:32:44.533Z,21.10
2023-07-17T15:35:12.853Z,21.10
2023-07-17T15:37:41.003Z,20.90
2023-07-17T15:40:10.890Z,21.00
2023-07-17T15:42:40.390Z,21.00
2023-07-17T15:45:20.325Z,21.10
2023-07-17T15:47:48.393Z,21.10
2023-07-17T15:50:16.770Z,21.00
2023-07-17T15:52:44.830Z,20.80
2023-07-17T15:55:12.870Z,20.60
2023-07-17T15:57:42.311Z,20.40
2023-07-17T16:00:11.333Z,20.20
2023-07-17T16:02:42.060Z,19.70
2023-07-17T16:05:10.574Z,18.30
2023-07-17T16:07:38.652Z,17.90
2023-07-17T16:10:07.686Z,17.70
2023-07-17T16:12:35.746Z,17.70
2023-07-17T16:15:06.492Z,17.70
2023-07-17T16:17:35.092Z,17.90
2023-07-17T16:20:03.205Z,18.20
2023-07-17T16:22:31.232Z,18.20
2023-07-17T16:24:59.326Z,18.20
2023-07-17T16:27:27.334Z,18.20
2023-07-17T16:29:55.455Z,18.00
2023-07-17T16:32:25.372Z,18.10
2023-07-17T16:34:53.632Z,18.30
2023-07-17T16:37:21.699Z,18.20
2023-07-17T16:39:49.752Z,18.40
2023-07-17T16:42:17.736Z,18.40
2023-07-17T16:44:45.757Z,18.40
2023-07-17T16:47:13.852Z,18.50
2023-07-17T16:49:43.228Z,18.50
2023-07-17T16:52:11.238Z,18.10
2023-07-17T16:54:39.275Z,17.90
2023-07-17T16:57:07.919Z,17.80
2023-07-17T16:59:35.903Z,17.80
2023-07-17T17:02:05.204Z,18.00
2023-07-17T17:04:33.333Z,18.10
2023-07-17T17:07:02.809Z,18.30
2023-07-17T17:09:30.808Z,18.50
2023-07-17T17:11:58.796Z,18.40
2023-07-17T17:14:26.806Z,18.30
2023-07-17T17:16:54.996Z,18.30
2023-07-17T17:19:23.025Z,18.30
2023-07-17T17:21:51.102Z,18.30
2023-07-17T17:24:21.104Z,18.30
2023-07-17T17:26:49.074Z,18.20
2023-07-17T17:29:17.072Z,18.40
2023-07-17T17:31:45.138Z,18.40
2023-07-17T17:34:13.381Z,18.50
2023-07-17T17:36:41.423Z,18.50
2023-07-17T17:39:09.432Z,18.30
2023-07-17T17:41:39.231Z,18.30
2023-07-17T17:44:08.134Z,18.30
2023-07-17T17:46:36.173Z,18.30
2023-07-17T17:49:04.267Z,18.30
2023-07-17T17:51:32.248Z,18.30
2023-07-17T17:54:00.298Z,18.30
2023-07-17T17:56:28.343Z,18.30
2023-07-17T17:58:57.722Z,18.40
2023-07-17T18:01:25.775Z,18.50
2023-07-17T18:03:56.415Z,18.50
2023-07-17T18:06:24.619Z,18.50
2023-07-17T18:08:52.588Z,18.50
2023-07-17T18:11:20.808Z,18.40
2023-07-17T18:13:49.310Z,18.40
2023-07-17T18:16:18.755Z,18.30
2023-07-17T18:18:46.847Z,18.40
2023-07-17T18:21:14.856Z,18.40
2023-07-17T18:23:42.930Z,18.40
2023-07-17T18:26:10.903Z,18.30
2023-07-17T18:28:38.881Z,18.30
2023-07-17T18:31:06.878Z,18.30
2023-07-17T18:33:36.280Z,18.30
2023-07-17T18:36:04.687Z,18.30
2023-07-17T18:38:33.037Z,18.20
2023-07-17T18:41:02.299Z,18.20
2023-07-17T18:43:30.522Z,18.10
2023-07-17T18:46:00.522Z,18.00
2023-07-17T18:48:28.867Z,18.00
2023-07-17T18:50:58.495Z,18.00
2023-07-17T18:53:26.456Z,18.00
2023-07-17T18:55:55.496Z,18.00
2023-07-17T18:58:24.136Z,17.90
2023-07-17T19:00:52.414Z,17.80
2023-07-17T19:03:20.442Z,17.90
2023-07-17T19:05:50.122Z,17.80
2023-07-17T19:08:19.572Z,17.80
2023-07-17T19:10:47.588Z,17.80
2023-07-17T19:13:16.752Z,17.80
2023-07-17T19:15:44.776Z,17.70
2023-07-17T19:18:12.861Z,17.60
2023-07-17T19:20:41.701Z,17.60
2023-07-17T19:23:09.857Z,17.50
2023-07-17T19:25:39.411Z,17.40
2023-07-17T19:28:08.139Z,17.20
2023-07-17T19:30:36.925Z,17.10
2023-07-17T19:33:05.050Z,17.10
2023-07-17T19:35:33.331Z,17.10
2023-07-17T19:38:01.340Z,16.80
2023-07-17T19:40:29.364Z,16.70
2023-07-17T19:42:58.817Z,16.70
2023-07-17T19:45:27.305Z,16.70
2023-07-17T19:47:55.348Z,16.60
2023-07-17T19:50:23.402Z,16.50
2023-07-17T19:52:51.387Z,16.40
2023-07-17T19:55:19.414Z,16.30
2023-07-17T19:57:47.403Z,16.40
2023-07-17T20:00:17.206Z,16.20
2023-07-17T20:02:47.949Z,16.20
2023-07-17T20:05:16.065Z,16.30
2023-07-17T20:07:44.064Z,16.30
2023-07-17T20:10:12.147Z,16.30
2023-07-17T20:12:40.215Z,16.30
2023-07-17T20:15:09.785Z,16.10
2023-07-17T20:17:39.788Z,15.90
2023-07-17T20:20:11.037Z,15.90
2023-07-17T20:22:41.038Z,15.90
2023-07-17T20:25:10.931Z,16.00
2023-07-17T20:27:42.783Z,16.00
2023-07-17T20:30:13.023Z,16.00
2023-07-17T20:32:42.726Z,16.10
2023-07-17T20:35:25.837Z,16.10
2023-07-17T20:37:55.172Z,16.20
2023-07-17T20:40:23.250Z,16.20
2023-07-17T20:42:53.220Z,16.20
2023-07-17T20:45:30.771Z,16.20
2023-07-17T20:48:00.509Z,16.20
2023-07-17T20:50:28.699Z,16.20
2023-07-17T20:52:57.993Z,16.20
2023-07-17T20:55:26.340Z,16.10
2023-07-17T20:57:54.310Z,16.20
2023-07-17T21:00:22.289Z,16.20
2023-07-17T21:02:50.497Z,16.20
2023-07-17T21:05:25.162Z,16.10
2023-07-17T21:07:53.456Z,15.80
2023-07-17T21:10:21.630Z,15.80
2023-07-17T21:12:51.600Z,15.80
2023-07-17T21:15:19.670Z,15.60
2023-07-17T21:17:47.710Z,15.50
2023-07-17T21:20:15.949Z,15.50
2023-07-17T21:22:45.322Z,15.50
2023-07-17T21:25:13.336Z,15.40
2023-07-17T21:27:41.312Z,15.40
2023-07-17T21:30:10.332Z,15.40
2023-07-17T21:32:38.621Z,15.30
2023-07-17T21:35:07.569Z,15.30
2023-07-17T21:37:35.594Z,15.00
2023-07-17T21:40:06.528Z,14.90
2023-07-17T21:42:34.535Z,14.90
2023-07-17T21:45:02.625Z,15.10
2023-07-17T21:47:30.723Z,15.10
2023-07-17T21:49:59.382Z,15.20
2023-07-17T21:52:27.583Z,15.30
2023-07-17T21:54:55.802Z,15.40
2023-07-17T21:57:25.219Z,15.50
2023-07-17T21:59:54.446Z,15.60
2023-07-17T22:02:22.958Z,15.60
2023-07-17T22:04:51.042Z,15.60
2023-07-17T22:07:19.061Z,15.50
2023-07-17T22:09:52.206Z,15.60
2023-07-17T22:12:20.775Z,15.60
2023-07-17T22:14:51.775Z,15.50
2023-07-17T22:17:20.532Z,15.50
2023-07-17T22:19:50.189Z,15.40
2023-07-17T22:22:19.452Z,15.40
2023-07-17T22:24:48.518Z,15.50
2023-07-17T22:27:16.626Z,15.50
2023-07-17T22:29:44.630Z,15.50
2023-07-17T22:32:14.884Z,15.40
2023-07-17T22:34:42.935Z,15.50
2023-07-17T22:37:11.042Z,15.40
2023-07-17T22:39:39.056Z,15.30
2023-07-17T22:42:07.215Z,15.20
2023-07-17T22:44:36.933Z,15.10
2023-07-17T22:47:05.423Z,15.10
2023-07-17T22:49:34.837Z,15.10
2023-07-17T22:52:02.906Z,15.00
2023-07-17T22:54:31.184Z,14.80
2023-07-17T22:56:59.254Z,14.70
2023-07-17T22:59:27.967Z,14.70
2023-07-17T23:01:56.287Z,14.70
2023-07-17T23:04:25.253Z,14.80
2023-07-17T23:06:54.712Z,14.80
2023-07-17T23:09:22.749Z,14.70
2023-07-17T23:11:50.733Z,14.80
2023-07-17T23:14:18.734Z,14.80
2023-07-17T23:16:47.167Z,14.80
2023-07-17T23:19:16.318Z,14.60
2023-07-17T23:21:45.178Z,14.50
2023-07-17T23:24:14.529Z,14.30
2023-07-17T23:26:44.456Z,14.30
2023-07-17T23:29:12.635Z,14.40
2023-07-17T23:31:40.679Z,14.30
2023-07-17T23:34:08.731Z,14.40
2023-07-17T23:36:37.104Z,14.40
2023-07-17T23:39:05.195Z,14.40
2023-07-17T23:41:34.548Z,14.50
2023-07-17T23:44:02.520Z,14.60
2023-07-17T23:46:30.523Z,14.60
2023-07-17T23:48:59.051Z,14.50
2023-07-17T23:51:27.022Z,14.30
2023-07-17T23:53:55.386Z,14.30
2023-07-17T23:56:23.371Z,14.30
2023-07-17T23:58:52.703Z,14.30
